Flight Track Log - Related Links

Times and Time Zones

All times are in EDT time to prevent confusion due to time zone crossing. See the CPT1940 flight status page for this flight to view local times or setup timezone preferences in your user account.

Time Position Orientation Groundspeed Altitude Reporting Facility
EDT Latitude Longitude Course Direction KTS MPH feet Rate Location/Type
Thu 09:31:03 AM 42.9297 -106.4611 103° East 102 117 6,900  Level Denver Center
Thu 09:32:04 AM 42.9578 -106.4333 36° Northeast 125 144 7,500 541 Climbing Denver Center
Thu 09:33:05 AM 42.9631 -106.3900 81° East 132 152 8,000 492 Climbing Denver Center
Thu 09:34:06 AM 42.9583 -106.3367 97° East 128 147 8,500 492 Climbing Denver Center
Thu 09:35:00 AM 42.7855 -106.1088 113° Southeast  Level Estimated
Thu 09:35:07 AM 42.9553 -106.2908 95° East 127 146 9,000  Level Denver Center
Thu 09:36:00 AM 42.7746 -106.0451 103° East  Level FlightAware Approximate
Thu 09:36:08 AM 42.9508 -106.2433 97° East 129 148 9,000  Level Denver Center
Thu 09:37:09 AM 42.9453 -106.1794 97° East 144 166 9,000  Level Denver Center
Thu 09:38:10 AM 42.9406 -106.1253 97° East 149 171 9,000  Level Denver Center
Thu 09:39:11 AM 42.9358 -106.0603 96° East 152 175 9,000  Level Denver Center
Thu 09:40:12 AM 42.9317 -106.0047 96° East 153 176 9,000  Level Denver Center
Thu 09:41:13 AM 42.9275 -105.9492 96° East 154 177 9,000  Level Denver Center
Thu 09:42:14 AM 42.9231 -105.8842 95° East 154 177 9,000  Level Denver Center
Thu 09:43:15 AM 42.9178 -105.8292 97° East 154 177 9,000  Level Denver Center
Thu 09:44:16 AM 42.9017 -105.7764 113° Southeast 155 178 9,000  Level Denver Center
Thu 09:45:18 AM 42.8797 -105.7169 117° Southeast 156 180 9,000  Level Denver Center
Thu 09:46:19 AM 42.8628 -105.6664 115° Southeast 155 178 9,000  Level Denver Center
Thu 09:47:20 AM 42.8464 -105.6156 114° Southeast 154 177 9,000  Level Denver Center
Thu 09:48:21 AM 42.8269 -105.5544 113° Southeast 155 178 9,000  Level Denver Center
Thu 09:49:22 AM 42.8111 -105.5033 113° Southeast 155 178 9,000  Level Denver Center
Thu 09:50:23 AM 42.7914 -105.4419 114° Southeast 156 180 9,000  Level Denver Center
Thu 09:51:25 AM 42.7739 -105.3914 115° Southeast 156 180 9,000  Level Denver Center
Thu 09:52:26 AM 42.7572 -105.3392 113° Southeast 156 180 9,000  Level Denver Center
Thu 09:53:27 AM 42.7375 -105.2778 114° Southeast 158 182 9,000  Level Denver Center
Thu 09:54:28 AM 42.7206 -105.2256 114° Southeast 158 182 9,000  Level Denver Center
Thu 09:55:30 AM 42.7000 -105.1644 115° Southeast 158 182 9,000  Level Denver Center
Thu 09:56:31 AM 42.6828 -105.1119 114° Southeast 159 183 9,000  Level Denver Center
Thu 09:57:32 AM 42.6656 -105.0594 114° Southeast 159 183 9,000  Level Denver Center
Thu 09:58:34 AM 42.6453 -104.9986 114° Southeast 159 183 9,000  Level Denver Center
Thu 09:59:35 AM 42.6281 -104.9450 114° Southeast 161 185 9,000  Level Denver Center
Thu 10:00:37 AM 42.6072 -104.8844 115° Southeast 160 184 9,000  Level Denver Center
Thu 10:01:38 AM 42.5900 -104.8317 114° Southeast 160 184 9,000  Level Denver Center
Thu 10:02:39 AM 42.5722 -104.7794 115° Southeast 159 183 9,000  Level Denver Center
Thu 10:03:41 AM 42.5514 -104.7172 114° Southeast 162 186 9,000 49 Level Denver Center
Thu 10:04:42 AM 42.5339 -104.6639 114° Southeast 163 188 9,100 49 Climbing Denver Center
Thu 10:05:44 AM 42.5128 -104.6044 116° Southeast 160 184 9,100  Level Denver Center
Thu 10:06:45 AM 42.4867 -104.5631 131° Southeast 154 177 9,100  Level Denver Center
Thu 10:07:46 AM 42.4575 -104.5156 130° Southeast 149 171 9,100  Level Denver Center
Thu 10:08:48 AM 42.4344 -104.4758 128° Southeast 145 167 9,100  Level Denver Center
Thu 10:09:49 AM 42.4078 -104.4306 129° Southeast 141 162 9,100  Level Denver Center
Thu 10:10:51 AM 42.3836 -104.3919 130° Southeast 141 162 9,100  Level Denver Center
Thu 10:11:52 AM 42.3589 -104.3533 131° Southeast 141 162 9,100  Level Denver Center
Thu 10:12:54 AM 42.3311 -104.3097 131° Southeast 139 160 9,100  Level Denver Center
Thu 10:13:55 AM 42.3067 -104.2711 131° Southeast 141 162 9,100  Level Denver Center
Thu 10:14:57 AM 42.2786 -104.2275 131° Southeast 138 159 9,100  Level Denver Center
Thu 10:15:58 AM 42.2542 -104.1881 130° Southeast 141 162 9,100  Level Denver Center
Thu 10:17:00 AM 42.2297 -104.1489 130° Southeast 142 163 9,100  Level Denver Center
Thu 10:18:01 AM 42.2011 -104.1036 130° Southeast 142 163 9,100  Level Denver Center
Thu 10:19:03 AM 42.1758 -104.0661 132° Southeast 142 163 9,100  Level Denver Center
Thu 10:20:04 AM 42.1489 -104.0183 127° Southeast 142 163 9,100  Level Denver Center
Thu 10:21:06 AM 42.1269 -103.9764 125° Southeast 143 165 9,100  Level Denver Center
Thu 10:22:08 AM 42.1008 -103.9297 127° Southeast 142 163 9,100  Level Denver Center
Thu 10:23:09 AM 42.0789 -103.8911 127° Southeast 138 159 9,100  Level Denver Center
Thu 10:24:11 AM 42.0558 -103.8506 127° Southeast 140 161 9,100  Level Denver Center
Thu 10:25:13 AM 42.0294 -103.8042 127° Southeast 140 161 9,100  Level Denver Center
Thu 10:26:15 AM 42.0058 -103.7694 132° Southeast 135 155 9,100  Level Denver Center
Thu 10:27:17 AM 42.0014 -103.8119 262° West 123 142 9,100  Level Denver Center
Thu 10:28:19 AM 42.0253 -103.8411 318° Northwest 121 139 9,100  Level Denver Center
Thu 10:29:20 AM 42.0447 -103.8181 41° Northeast 141 162 9,100  Level Denver Center
Thu 10:30:22 AM 42.0189 -103.7858 137° Southeast 134 154 9,100  Level Denver Center
Thu 10:31:24 AM 41.9978 -103.7942 196° South 132 152 9,100  Level Denver Center
Thu 10:32:26 AM 42.0189 -103.8256 312° West 122 140 9,100  Level Denver Center
Thu 10:33:28 AM 42.0481 -103.8411 338° Northwest 123 142 9,100  Level Denver Center
Thu 10:34:30 AM 42.0356 -103.8028 114° Southeast 129 148 9,100 -48 Level Denver Center
Thu 10:35:32 AM 42.0083 -103.7719 140° Southeast 133 153 9,000  Descending Denver Center
Thu 10:36:34 AM 42.0017 -103.8039 254° West 125 144 9,100 48 Climbing Denver Center
Thu 10:37:36 AM 42.0208 -103.8375 308° West 120 138 9,100  Level Denver Center
Thu 10:38:38 AM 42.0464 -103.8728 314° West 119 137 9,100  Level Denver Center
Thu 10:39:40 AM 42.0478 -103.8294 88° East 142 163 9,100  Level Denver Center
Thu 10:40:42 AM 42.0192 -103.7897 134° Southeast 134 154 9,100  Level Denver Center
Thu 10:41:44 AM 41.9925 -103.7769 160° South 131 151 9,100  Level Denver Center
Thu 10:42:46 AM 42.0100 -103.8181 300° West 127 146 9,100  Level Denver Center
Thu 10:43:48 AM 42.0314 -103.8503 312° West 123 142 9,100  Level Denver Center
Thu 10:44:50 AM 42.0614 -103.8589 348° North 134 154 9,100  Level Denver Center
Thu 10:45:52 AM 42.0444 -103.8183 119° Southeast 136 157 9,100  Level Denver Center
Thu 10:46:54 AM 42.0147 -103.7797 136° Southeast 134 154 9,100  Level Denver Center
Thu 10:47:57 AM 41.9933 -103.7878 196° South 135 155 9,100  Level Denver Center
Thu 10:48:59 AM 42.0156 -103.8261 308° West 121 139 9,100  Level Denver Center
Thu 10:50:01 AM 42.0353 -103.8589 309° West 119 137 9,100  Level Denver Center
Thu 10:51:03 AM 42.0594 -103.8497 16° North 136 157 9,100  Level Denver Center
Thu 10:52:05 AM 42.0331 -103.8061 129° Southeast 135 155 9,100  Level Denver Center
Thu 10:53:07 AM 42.0078 -103.7736 136° Southeast 134 154 9,100  Level Denver Center
Thu 10:54:09 AM 42.0003 -103.8017 250° West 128 147 9,100  Level Denver Center
Thu 10:55:11 AM 42.0214 -103.8328 312° West 120 138 9,100  Level Denver Center
Thu 10:56:13 AM 42.0450 -103.8700 311° West 118 136 9,100  Level Denver Center
Thu 10:57:15 AM 42.0594 -103.8411 56° Northeast 142 163 9,100  Level Denver Center
Thu 10:58:17 AM 42.0300 -103.8022 136° Southeast 135 155 9,100  Level Denver Center
Thu 10:59:19 AM 42.0033 -103.7681 136° Southeast 138 159 9,100  Level Denver Center
Thu 11:00:21 AM 42.0033 -103.8056 270° West 128 147 9,100  Level Denver Center
Thu 11:01:23 AM 42.0242 -103.8369 312° West 120 138 9,100  Level Denver Center
Thu 11:02:25 AM 42.0503 -103.8714 316° Northwest 119 137 9,100  Level Denver Center
Thu 11:03:27 AM 42.0497 -103.8267 91° East 139 160 9,100  Level Denver Center
Thu 11:04:29 AM 42.0194 -103.7889 137° Southeast 135 155 9,100  Level Denver Center
Thu 11:05:31 AM 41.9919 -103.7817 169° South 146 168 9,100  Level Denver Center
Thu 11:06:33 AM 42.0108 -103.8203 303° West 121 139 9,100  Level Denver Center
Thu 11:07:35 AM 42.0319 -103.8531 311° West 120 138 9,100  Level Denver Center
Thu 11:08:37 AM 42.0578 -103.8761 326° Northwest 122 140 9,100  Level Denver Center
Thu 11:09:40 AM 42.0500 -103.8272 102° East 131 151 9,100  Level Denver Center
Thu 11:10:42 AM 42.0239 -103.7906 134° Southeast 137 158 9,100  Level Denver Center
Thu 11:11:44 AM 41.9906 -103.7717 157° South 144 166 9,100  Level Denver Center
Thu 11:12:46 AM 42.0050 -103.8072 299° West 125 144 9,100  Level Denver Center
Thu 11:13:48 AM 42.0297 -103.8456 311° West 122 140 9,100  Level Denver Center
Thu 11:14:50 AM 42.0506 -103.8778 311° West 121 139 9,100  Level Denver Center
Thu 11:15:52 AM 42.0594 -103.8381 73° East 138 159 9,100  Level Denver Center
Thu 11:16:54 AM 42.0333 -103.8058 137° Southeast 135 155 9,100  Level Denver Center
Thu 11:17:56 AM 42.0003 -103.7689 140° Southeast 136 157 9,100  Level Denver Center
Thu 11:18:58 AM 42.0008 -103.8050 271° West 132 152 9,100  Level Denver Center
Thu 11:20:00 AM 42.0256 -103.8431 311° West 123 142 9,100  Level Denver Center
Thu 11:21:02 AM 42.0478 -103.8742 314° West 121 139 9,100  Level Denver Center
Thu 11:22:04 AM 42.0475 -103.8261 90° East 140 161 9,100  Level Denver Center
Thu 11:23:06 AM 42.0217 -103.7894 133° Southeast 141 162 9,100  Level Denver Center
Thu 11:24:08 AM 41.9922 -103.7817 169° South 141 162 9,100  Level Denver Center
Thu 11:25:10 AM 42.0100 -103.8164 305° West 127 146 9,100  Level Denver Center
Thu 11:26:12 AM 42.0311 -103.8472 313° West 120 138 9,100  Level Denver Center
Thu 11:27:14 AM 42.0608 -103.8556 348° North 142 163 9,100  Level Denver Center
Thu 11:28:16 AM 42.0428 -103.8167 122° Southeast 140 161 9,100  Level Denver Center
Thu 11:29:18 AM 42.0114 -103.7794 139° Southeast 137 158 9,100  Level Denver Center
Thu 11:30:20 AM 41.9897 -103.7928 205° Southwest 130 150 9,100  Level Denver Center
Thu 11:31:22 AM 42.0136 -103.8317 310° West 122 140 9,100  Level Denver Center
Thu 11:32:25 AM 42.0350 -103.8642 312° West 121 139 9,100  Level Denver Center
Thu 11:33:27 AM 42.0653 -103.8769 343° North 131 151 9,100  Level Denver Center
Thu 11:34:29 AM 42.0500 -103.8350 116° Southeast 134 154 9,100  Level Denver Center
Thu 11:35:31 AM 42.0206 -103.7908 132° Southeast 139 160 9,100  Level Denver Center
Thu 11:36:33 AM 41.9928 -103.7800 164° South 153 176 9,100  Level Denver Center
Thu 11:37:35 AM 42.0106 -103.8197 301° West 127 146 9,100  Level Denver Center
Thu 11:38:37 AM 42.0325 -103.8528 312° West 124 143 9,100  Level Denver Center
Thu 11:39:39 AM 42.0619 -103.8786 327° Northwest 135 155 9,100  Level Denver Center
Thu 11:40:41 AM 42.0539 -103.8372 105° East 139 160 9,100  Level Denver Center
Thu 11:41:43 AM 42.0239 -103.7944 133° Southeast 140 161 9,100  Level Denver Center
Thu 11:42:45 AM 41.9972 -103.7606 137° Southeast 139 160 9,100  Level Denver Center
Thu 11:43:47 AM 41.9961 -103.7964 268° West 128 147 9,100  Level Denver Center
Thu 11:44:49 AM 42.0203 -103.8358 310° West 123 142 9,100  Level Denver Center
Thu 11:45:51 AM 42.0417 -103.8692 311° West 122 140 9,100  Level Denver Center
Thu 11:46:53 AM 42.0647 -103.8542 26° Northeast 138 159 9,100  Level Denver Center
Thu 11:47:55 AM 42.0392 -103.8175 133° Southeast 139 160 9,100  Level Denver Center
Thu 11:48:57 AM 42.0083 -103.7756 135° Southeast 140 161 9,100  Level Denver Center
Thu 11:49:59 AM 41.9906 -103.7961 221° Southwest 138 159 9,100  Level Denver Center
Thu 11:51:01 AM 42.0150 -103.8369 309° West 129 148 9,100  Level Denver Center
Thu 11:52:04 AM 42.0389 -103.8728 312° West 131 151 9,100  Level Denver Center
Thu 11:53:06 AM 42.0711 -103.9181 314° West 143 165 9,100  Level Denver Center
Thu 11:54:08 AM 42.0958 -103.9561 311° West 143 165 9,100  Level Denver Center
Thu 11:55:10 AM 42.1244 -104.0006 311° West 142 163 9,100  Level Denver Center
Thu 11:56:12 AM 42.1489 -104.0394 310° West 142 163 9,100  Level Denver Center
Thu 11:57:14 AM 42.1761 -104.0819 311° West 138 159 9,100  Level Denver Center
Thu 11:58:16 AM 42.2011 -104.1197 312° West 138 159 9,100  Level Denver Center
Thu 11:59:18 AM 42.2308 -104.1642 312° West 141 162 9,100  Level Denver Center
Thu 12:00:20 PM 42.2561 -104.2019 312° West 142 163 9,100  Level Denver Center
Thu 12:01:22 PM 42.2794 -104.2389 310° West 138 159 9,100  Level Denver Center
Thu 12:02:24 PM 42.3083 -104.2842 311° West 139 160 9,100  Level Denver Center
Thu 12:03:26 PM 42.3333 -104.3219 312° West 141 162 9,100  Level Denver Center
Thu 12:04:28 PM 42.3614 -104.3664 311° West 139 160 9,100  Level Denver Center
Thu 12:05:30 PM 42.3861 -104.4047 311° West 140 161 9,100  Level Denver Center
Thu 12:06:32 PM 42.4139 -104.4489 310° West 139 160 9,100  Level Denver Center
Thu 12:07:34 PM 42.4389 -104.4875 311° West 140 161 9,100  Level Denver Center
Thu 12:08:37 PM 42.4669 -104.5319 311° West 139 160 9,100  Level Denver Center
Thu 12:09:39 PM 42.4919 -104.5703 311° West 140 161 9,100  Level Denver Center
Thu 12:10:41 PM 42.5211 -104.6164 294° West 142 163 9,100  Level Denver Center
Thu 12:11:00 PM 42.5260 -104.6286 294° West  Level FlightAware Approximate
Thu 12:11:43 PM 42.5367 -104.6647 294° West 144 166 9,100  Level Denver Center
Thu 12:12:45 PM 42.5528 -104.7131 294° West 145 167 9,000 -48 Descending Denver Center
Thu 12:13:47 PM 42.5717 -104.7683 295° West 145 167 9,000  Level Denver Center
Thu 12:14:49 PM 42.5875 -104.8161 294° West 145 167 9,000  Level Denver Center
Thu 12:15:51 PM 42.6058 -104.8711 294° West 144 166 9,000  Level Denver Center
Thu 12:16:53 PM 42.6219 -104.9200 294° West 145 167 9,000  Level Denver Center
Thu 12:17:55 PM 42.6406 -104.9736 295° West 143 165 9,000  Level Denver Center
Thu 12:18:57 PM 42.6561 -105.0214 294° West 144 166 9,000  Level Denver Center
Thu 12:19:59 PM 42.6719 -105.0711 293° West 146 168 9,000  Level Denver Center
Thu 12:21:01 PM 42.6900 -105.1278 293° West 147 169 9,000  Level Denver Center
Thu 12:22:03 PM 42.7058 -105.1744 295° West 145 167 9,000  Level Denver Center
Thu 12:23:06 PM 42.7244 -105.2292 295° West 143 165 9,000  Level Denver Center
Thu 12:24:08 PM 42.7403 -105.2792 293° West 147 169 9,000  Level Denver Center
Thu 12:25:10 PM 42.7581 -105.3339 294° West 145 167 9,000  Level Denver Center
Thu 12:26:12 PM 42.7742 -105.3828 294° West 145 167 9,000  Level Denver Center
Thu 12:27:14 PM 42.7928 -105.4392 294° West 146 168 9,000  Level Denver Center
Thu 12:28:16 PM 42.8083 -105.4878 294° West 147 169 9,000  Level Denver Center
Thu 12:29:18 PM 42.8267 -105.5450 294° West 147 169 9,000  Level Denver Center
Thu 12:30:20 PM 42.8425 -105.5942 294° West 147 169 9,000  Level Denver Center
Thu 12:31:22 PM 42.8597 -105.6514 292° West 147 169 9,000  Level Denver Center
Thu 12:32:24 PM 42.8647 -105.7039 277° West 146 168 9,000  Level Denver Center
Thu 12:33:26 PM 42.8694 -105.7669 276° West 147 169 9,000  Level Denver Center
Thu 12:34:28 PM 42.8753 -105.8192 279° West 147 169 9,000  Level Denver Center
Thu 12:35:30 PM 42.8819 -105.8817 278° West 148 170 9,000  Level Denver Center
Thu 12:36:32 PM 42.8875 -105.9344 278° West 148 170 9,000  Level Denver Center
Thu 12:37:34 PM 42.8939 -105.9967 278° West 148 170 9,000  Level Denver Center
Thu 12:38:37 PM 42.8989 -106.0500 277° West 147 169 9,000 -288 Level Denver Center
Thu 12:39:39 PM 42.9039 -106.1033 277° West 148 170 8,400 -677 Descending Denver Center
Thu 12:40:41 PM 42.9108 -106.1711 278° West 156 180 7,600 -484 Descending Denver Center
Thu 12:41:43 PM 42.9158 -106.2239 277° West 153 176 7,400 -242 Descending Denver Center
Thu 12:42:45 PM 42.9142 -106.2861 268° West 147 169 7,100 -387 Descending Denver Center
Thu 12:43:47 PM 42.9114 -106.3442 266° West 154 177 6,600 -484 Descending Denver Center
Thu 12:45:00 PM 42.9000 -106.4127 270° West  Level FlightAware Approximate

Login

Don't have an account? Register now (free) for customized features, flight alerts, and more!